Time;durP1;ratioP1;P1;durP2;ratioP2;P2;SDS_P1;SDS_P2;PMS_P1;PMS_P2;Temp;Humidity;BMP_temperature;BMP_pressure;BME280_temperature;BME280_humidity;BME280_pressure;Samples;Min_cycle;Max_cycle;Signal;HPM_P1;HPM_P2
2022/12/14 00:00:50;;;;;;;8.45;5.13;;;-1.10;99.90;;;;;;5051791;28;20686;-43
2022/12/14 00:03:16;;;;;;;10.02;5.28;;;-1.10;99.90;;;;;;5052000;28;20175;-43
2022/12/14 00:05:43;;;;;;;9.85;5.60;;;-1.10;99.90;;;;;;5051748;28;20224;-43
2022/12/14 00:08:09;;;;;;;11.00;5.32;;;-1.00;99.90;;;;;;5051777;28;20214;-43
2022/12/14 00:10:36;;;;;;;9.73;6.07;;;-1.00;99.90;;;;;;5051821;28;20162;-42
2022/12/14 00:13:02;;;;;;;13.30;5.45;;;-1.00;99.90;;;;;;5051894;28;20173;-42
2022/12/14 00:15:28;;;;;;;9.73;5.70;;;-1.00;99.90;;;;;;5051580;28;20167;-43
2022/12/14 00:17:54;;;;;;;10.88;5.47;;;-1.00;99.90;;;;;;5052107;28;20179;-42
2022/12/14 00:20:19;;;;;;;9.05;5.07;;;-1.00;99.90;;;;;;5050065;28;20231;-43
2022/12/14 00:22:45;;;;;;;11.23;6.22;;;-1.00;99.90;;;;;;5051569;28;20254;-44
2022/12/14 00:25:11;;;;;;;9.95;5.50;;;-1.00;99.90;;;;;;5051476;28;20236;-42
2022/12/14 00:27:44;;;;;;;10.32;5.78;;;-1.00;99.90;;;;;;5051457;28;20218;-43
2022/12/14 00:30:15;;;;;;;9.00;5.22;;;-1.00;99.90;;;;;;5051540;28;20171;-43
2022/12/14 00:32:41;;;;;;;12.93;6.00;;;-1.00;99.90;;;;;;5051530;28;20162;-43
2022/12/14 00:35:08;;;;;;;9.70;5.82;;;-1.00;99.90;;;;;;5051158;28;20185;-44
2022/12/14 00:37:35;;;;;;;11.10;6.28;;;-0.90;99.90;;;;;;5051350;28;20531;-42
2022/12/14 00:40:01;;;;;;;10.75;5.05;;;-1.00;99.90;;;;;;5051128;28;20178;-43
2022/12/14 00:42:27;;;;;;;10.80;5.32;;;-0.90;99.90;;;;;;5051559;28;20159;-43
2022/12/14 00:44:52;;;;;;;10.90;6.30;;;-1.10;99.90;;;;;;5051584;28;20224;-42
2022/12/14 00:47:18;;;;;;;9.10;5.00;;;-0.90;99.90;;;;;;5049085;28;20206;-44
2022/12/14 00:49:43;;;;;;;9.98;6.35;;;-0.90;99.90;;;;;;5051166;28;20634;-46
2022/12/14 00:52:09;;;;;;;10.68;5.78;;;-0.90;99.90;;;;;;5050794;28;20232;-43
2022/12/14 00:54:34;;;;;;;10.20;5.50;;;-0.90;99.90;;;;;;5052034;28;20174;-44
2022/12/14 00:57:00;;;;;;;10.10;5.18;;;-0.90;99.90;;;;;;5052677;28;20241;-43
2022/12/14 00:59:25;;;;;;;11.02;5.32;;;-0.90;99.90;;;;;;5053048;28;20171;-43
2022/12/14 01:01:51;;;;;;;10.40;5.03;;;-0.90;99.90;;;;;;5052388;28;20268;-46
2022/12/14 01:04:16;;;;;;;9.50;5.55;;;-0.90;99.90;;;;;;5052289;28;20370;-43
2022/12/14 01:06:43;;;;;;;8.55;5.53;;;-0.90;99.90;;;;;;5052501;28;20205;-43
2022/12/14 01:09:09;;;;;;;9.65;5.30;;;-0.90;99.90;;;;;;5052527;28;20228;-43
2022/12/14 01:11:35;;;;;;;11.68;5.63;;;-0.90;99.90;;;;;;5052639;28;20167;-42
2022/12/14 01:14:01;;;;;;;11.00;5.78;;;-0.90;99.90;;;;;;5052432;28;20179;-42
2022/12/14 01:16:26;;;;;;;13.18;5.78;;;-0.90;99.90;;;;;;5052867;28;20685;-43
2022/12/14 01:18:52;;;;;;;8.93;5.45;;;2.00;99.90;;;;;;5052789;28;20175;-43
2022/12/14 01:21:20;;;;;;;11.57;5.63;;;-0.90;99.90;;;;;;5052327;28;20165;-43
2022/12/14 01:23:47;;;;;;;11.18;6.15;;;-0.90;99.90;;;;;;5052332;28;20173;-43
2022/12/14 01:26:15;;;;;;;11.93;6.22;;;-0.90;99.90;;;;;;5052104;28;20166;-42
2022/12/14 01:28:41;;;;;;;10.60;6.00;;;-0.90;99.90;;;;;;5052261;28;20167;-43
2022/12/14 01:31:15;;;;;;;8.38;5.20;;;-0.90;99.90;;;;;;5052152;28;20163;-43
2022/12/14 01:33:41;;;;;;;10.05;5.45;;;-0.90;99.90;;;;;;5052050;28;20170;-42
2022/12/14 01:36:12;;;;;;;9.50;5.07;;;-0.90;99.90;;;;;;5052066;28;20166;-48
2022/12/14 01:38:38;;;;;;;12.70;6.18;;;-0.90;99.90;;;;;;5052153;28;20166;-43
2022/12/14 01:41:05;;;;;;;9.10;5.07;;;-0.90;99.90;;;;;;5052017;28;20163;-43
2022/12/14 01:43:49;;;;;;;13.48;6.45;;;-0.90;99.90;;;;;;5051856;28;20170;-43
2022/12/14 01:46:24;;;;;;;9.07;5.32;;;-0.90;99.90;;;;;;5052050;28;20162;-43
2022/12/14 01:48:53;;;;;;;11.18;5.90;;;-0.90;99.90;;;;;;5051826;28;20180;-43
2022/12/14 01:51:18;;;;;;;9.93;4.63;;;-0.90;99.90;;;;;;5051859;28;20656;-43
2022/12/14 01:53:45;;;;;;;10.02;4.90;;;-0.90;99.90;;;;;;5051812;28;20204;-43
2022/12/14 01:56:11;;;;;;;10.07;5.68;;;-0.90;99.90;;;;;;5052062;28;20216;-43
2022/12/14 01:58:37;;;;;;;10.52;5.43;;;-0.90;99.90;;;;;;5051798;28;20179;-43
2022/12/14 02:01:03;;;;;;;10.52;5.30;;;-0.90;99.90;;;;;;5051583;28;20293;-43
2022/12/14 02:03:43;;;;;;;12.98;4.97;;;-1.00;99.90;;;;;;5051743;28;20247;-43
2022/12/14 02:06:15;;;;;;;10.30;5.82;;;-1.00;99.90;;;;;;5051642;28;20174;-42
2022/12/14 02:08:44;;;;;;;10.95;5.57;;;-1.00;99.90;;;;;;5051650;28;20189;-42
2022/12/14 02:11:10;;;;;;;8.52;4.82;;;-1.00;99.90;;;;;;5051655;28;20630;-43
2022/12/14 02:13:39;;;;;;;8.65;4.82;;;-1.10;99.90;;;;;;5051836;28;20184;-43
2022/12/14 02:16:05;;;;;;;9.88;4.93;;;-1.10;99.90;;;;;;5051850;28;20252;-43
2022/12/14 02:18:31;;;;;;;10.83;5.17;;;-1.10;99.90;;;;;;5051516;28;20171;-43
2022/12/14 02:21:17;;;;;;;7.72;4.70;;;-1.10;99.90;;;;;;5051588;28;20528;-43
2022/12/14 02:24:12;;;;;;;11.83;5.40;;;-1.10;99.90;;;;;;5051759;28;20182;-43
2022/12/14 02:27:00;;;;;;;5.90;4.53;;;-1.10;99.90;;;;;;5051448;28;20206;-43
2022/12/14 02:29:38;;;;;;;7.75;4.30;;;-1.10;99.90;;;;;;5051643;28;20167;-43
2022/12/14 02:32:41;;;;;;;10.57;5.10;;;-1.10;99.90;;;;;;5051498;28;20200;-43
2022/12/14 02:35:20;;;;;;;9.75;5.55;;;-1.10;99.90;;;;;;5051339;28;20530;-42
2022/12/14 02:38:04;;;;;;;7.80;4.20;;;-1.20;99.90;;;;;;5051333;28;20673;-44
2022/12/14 02:40:40;;;;;;;6.25;4.18;;;-1.20;99.90;;;;;;5051325;28;20618;-43
2022/12/14 02:43:26;;;;;;;8.60;4.43;;;-1.10;99.90;;;;;;5051353;28;20158;-43
2022/12/14 02:46:13;;;;;;;10.00;4.80;;;-1.10;99.90;;;;;;5051694;28;20230;-43
2022/12/14 02:48:44;;;;;;;9.93;4.67;;;-1.10;99.90;;;;;;5051348;28;20722;-43
2022/12/14 02:51:36;;;;;;;10.98;5.57;;;-1.10;99.90;;;;;;5051316;28;20220;-43
2022/12/14 02:54:51;;;;;;;8.43;5.15;;;-1.10;99.90;;;;;;5051224;28;20179;-43
2022/12/14 02:57:31;;;;;;;10.05;4.70;;;-1.10;99.90;;;;;;5029176;28;20859;-43
2022/12/14 03:00:00;;;;;;;12.20;5.40;;;-1.10;99.90;;;;;;5051114;28;20178;-43
2022/12/14 03:02:27;;;;;;;6.53;4.20;;;-1.00;99.90;;;;;;5051309;28;20226;-43
2022/12/14 03:04:52;;;;;;;9.50;4.97;;;-1.00;99.90;;;;;;5051417;28;20654;-43
2022/12/14 03:07:52;;;;;;;8.27;4.68;;;-1.00;99.90;;;;;;5051244;28;20279;-43
2022/12/14 03:10:38;;;;;;;8.23;4.87;;;-1.00;99.90;;;;;;5049608;28;20183;-43
2022/12/14 03:13:32;;;;;;;9.10;4.80;;;-1.00;99.90;;;;;;5051211;28;20159;-43
2022/12/14 03:16:15;;;;;;;7.53;4.45;;;-1.00;99.90;;;;;;5051631;28;20208;-43
2022/12/14 03:18:48;;;;;;;7.20;3.65;;;-1.10;99.90;;;;;;5054914;28;20256;-43
2022/12/14 03:21:20;;;;;;;11.07;4.50;;;-1.10;99.90;;;;;;5054524;28;20166;-43
2022/12/14 03:23:49;;;;;;;10.03;5.53;;;-1.00;99.90;;;;;;5054522;28;20171;-43
2022/12/14 03:26:29;;;;;;;8.73;4.88;;;-1.00;99.90;;;;;;5054673;28;20174;-43
2022/12/14 03:29:11;;;;;;;13.23;5.47;;;-1.00;99.90;;;;;;5054834;28;20175;-43
2022/12/14 03:31:45;;;;;;;9.77;4.70;;;-1.00;99.90;;;;;;5054289;28;20163;-43
2022/12/14 03:34:14;;;;;;;9.35;5.28;;;-1.00;99.90;;;;;;5054347;28;20162;-43
2022/12/14 03:37:02;;;;;;;10.02;4.90;;;-1.00;99.90;;;;;;5054383;28;20159;-44
2022/12/14 03:39:32;;;;;;;8.50;4.63;;;-0.90;99.90;;;;;;5043262;28;20185;-43
2022/12/14 03:42:19;;;;;;;9.52;4.93;;;-0.90;99.90;;;;;;5054139;28;20171;-43
2022/12/14 03:45:03;;;;;;;9.07;4.18;;;-0.90;99.90;;;;;;5053723;28;20542;-44
2022/12/14 03:47:56;;;;;;;8.32;4.78;;;-0.80;99.90;;;;;;5053900;28;20202;-43
2022/12/14 03:50:33;;;;;;;9.20;4.85;;;-0.90;99.90;;;;;;5054250;28;20194;-43
2022/12/14 03:53:47;;;;;;;8.60;4.47;;;-0.90;99.90;;;;;;5053890;28;20568;-43
2022/12/14 03:56:30;;;;;;;11.93;5.20;;;-0.90;99.90;;;;;;5034262;28;20726;-43
2022/12/14 03:59:11;;;;;;;9.43;4.90;;;-0.90;99.90;;;;;;5054353;28;20163;-43
2022/12/14 04:01:52;;;;;;;8.70;5.05;;;-0.90;99.90;;;;;;5053785;28;20301;-43
2022/12/14 04:04:29;;;;;;;16.30;5.15;;;-0.90;99.90;;;;;;5053787;28;20657;-44
2022/12/14 04:07:03;;;;;;;10.05;4.68;;;1.40;99.90;;;;;;5054133;28;20215;-45
2022/12/14 04:09:44;;;;;;;8.60;4.47;;;-0.90;99.90;;;;;;5053732;28;20174;-44
2022/12/14 04:20:56;;;;;;;13.93;5.35;;;-0.90;99.90;;;;;;5053755;28;20202;-43
2022/12/14 04:26:24;;;;;;;12.88;7.70;;;-0.90;99.90;;;;;;5053593;28;20540;-43
2022/12/14 04:31:44;;;;;;;20.63;9.93;;;-0.90;99.90;;;;;;5053372;28;20583;-42
2022/12/14 04:34:12;;;;;;;19.95;7.82;;;-0.80;99.90;;;;;;5053224;28;20159;-44
2022/12/14 04:36:52;;;;;;;9.20;5.60;;;-0.80;99.90;;;;;;5053220;28;20166;-43
2022/12/14 04:39:32;;;;;;;9.88;5.55;;;-0.80;99.90;;;;;;5053082;28;20170;-43
2022/12/14 04:42:01;;;;;;;11.77;5.38;;;-0.80;99.90;;;;;;5053010;28;20189;-43
2022/12/14 04:44:34;;;;;;;8.85;4.70;;;-0.80;99.90;;;;;;5052936;28;20171;-43
2022/12/14 04:47:03;;;;;;;7.82;4.80;;;-0.80;99.90;;;;;;5052787;28;20205;-43
2022/12/14 04:49:39;;;;;;;10.93;5.38;;;-0.80;99.90;;;;;;5052952;28;20167;-43
2022/12/14 04:52:30;;;;;;;15.73;5.20;;;-0.80;99.90;;;;;;5052850;28;20523;-43
2022/12/14 04:55:12;;;;;;;10.70;4.97;;;-0.80;99.90;;;;;;5052843;28;20258;-42
2022/12/14 04:57:54;;;;;;;10.38;5.30;;;-0.80;99.90;;;;;;5052782;28;20171;-43
2022/12/14 05:00:20;;;;;;;15.25;6.60;;;-0.70;99.90;;;;;;5052537;28;20163;-48
2022/12/14 05:03:14;;;;;;;16.05;7.30;;;-0.70;99.90;;;;;;5052660;28;20220;-44
2022/12/14 05:05:43;;;;;;;22.98;8.38;;;-0.70;99.90;;;;;;5051251;28;20174;-43
2022/12/14 05:08:42;;;;;;;16.20;8.13;;;-0.70;99.90;;;;;;5052462;28;20202;-43
2022/12/14 05:11:25;;;;;;;10.05;5.43;;;-0.70;99.90;;;;;;5052618;28;20531;-44
2022/12/14 05:13:50;;;;;;;23.17;6.90;;;-0.70;99.90;;;;;;5052428;28;20289;-45
2022/12/14 05:16:21;;;;;;;8.40;5.80;;;-0.70;99.90;;;;;;5052638;28;20265;-43
2022/12/14 05:18:50;;;;;;;12.63;5.38;;;-0.70;99.90;;;;;;5052260;28;20615;-45
2022/12/14 05:24:02;;;;;;;11.88;5.38;;;-0.70;99.90;;;;;;5052476;28;20679;-44
2022/12/14 05:26:29;;;;;;;8.00;4.63;;;-0.70;99.90;;;;;;5052427;28;20202;-42
2022/12/14 05:28:55;;;;;;;12.35;4.78;;;-0.70;99.90;;;;;;5052507;28;20170;-43
2022/12/14 05:31:21;;;;;;;8.80;4.97;;;-0.70;99.90;;;;;;5052397;28;20611;-43
2022/12/14 05:33:46;;;;;;;10.68;4.63;;;-0.70;99.90;;;;;;5052392;28;20256;-49
2022/12/14 05:36:12;;;;;;;13.32;4.72;;;-0.70;99.90;;;;;;5050879;28;20162;-43
2022/12/14 05:38:37;;;;;;;8.77;4.78;;;-0.70;99.90;;;;;;5050663;28;20642;-43
2022/12/14 05:41:03;;;;;;;7.20;4.68;;;-0.70;99.90;;;;;;5052052;28;20623;-43
2022/12/14 05:43:29;;;;;;;9.75;4.78;;;-0.70;99.90;;;;;;5052008;28;20224;-42
2022/12/14 05:46:02;;;;;;;12.00;4.22;;;-0.70;99.90;;;;;;5052541;28;20209;-43
2022/12/14 05:48:29;;;;;;;25.88;5.10;;;-0.70;99.90;;;;;;5050964;28;20228;-43
2022/12/14 05:50:54;;;;;;;16.70;5.68;;;-0.70;99.90;;;;;;5052415;28;20216;-43
2022/12/14 05:53:20;;;;;;;7.47;4.85;;;-0.70;99.90;;;;;;5051988;28;20178;-43
2022/12/14 05:55:50;;;;;;;16.15;6.60;;;-0.70;99.90;;;;;;5051845;28;20532;-43
2022/12/14 05:58:15;;;;;;;28.75;8.38;;;-0.60;99.90;;;;;;5051882;28;20177;-43
2022/12/14 06:00:41;;;;;;;9.60;6.57;;;-0.60;99.90;;;;;;5051537;28;20301;-43
2022/12/14 06:03:06;;;;;;;11.15;6.93;;;-0.60;99.90;;;;;;5051831;28;20174;-42
2022/12/14 06:05:32;;;;;;;12.35;7.35;;;-0.60;99.90;;;;;;5051743;28;20570;-42
2022/12/14 06:07:58;;;;;;;11.43;5.18;;;-0.60;99.90;;;;;;5050362;28;20647;-42
2022/12/14 06:10:23;;;;;;;7.55;4.78;;;-0.60;99.90;;;;;;5051959;28;20167;-43
2022/12/14 06:12:49;;;;;;;9.90;4.55;;;0.30;99.90;;;;;;5051515;28;20167;-43
2022/12/14 06:15:15;;;;;;;12.60;5.25;;;-0.60;99.90;;;;;;5051532;28;20217;-43
2022/12/14 06:17:45;;;;;;;11.45;4.70;;;-0.50;99.90;;;;;;5051549;28;20174;-42
2022/12/14 06:20:12;;;;;;;14.80;5.20;;;-0.60;99.90;;;;;;5051336;28;20165;-42
2022/12/14 06:22:38;;;;;;;12.23;5.80;;;-0.60;99.90;;;;;;5051004;28;20185;-43
2022/12/14 06:25:05;;;;;;;7.25;4.75;;;-0.60;99.90;;;;;;5051418;28;20190;-43
2022/12/14 06:27:31;;;;;;;9.00;4.85;;;-0.60;99.90;;;;;;5051239;28;20603;-43
2022/12/14 06:29:56;;;;;;;10.15;5.05;;;-0.60;99.90;;;;;;5051360;28;20171;-43
2022/12/14 06:32:22;;;;;;;12.35;5.63;;;-0.60;99.90;;;;;;5051724;28;20174;-43
2022/12/14 06:34:48;;;;;;;9.77;5.50;;;-0.50;99.90;;;;;;5051311;28;20174;-43
2022/12/14 06:37:13;;;;;;;13.57;5.68;;;-0.50;99.90;;;;;;5051367;28;20167;-44
2022/12/14 06:39:39;;;;;;;14.93;5.28;;;-0.50;99.90;;;;;;5051574;28;20656;-43
2022/12/14 06:42:05;;;;;;;12.65;5.75;;;-0.50;99.90;;;;;;5051366;28;20175;-43
2022/12/14 06:44:31;;;;;;;7.85;5.25;;;-0.60;99.90;;;;;;5051347;28;20250;-43
2022/12/14 06:46:56;;;;;;;11.43;5.10;;;-0.60;99.90;;;;;;5051278;28;20289;-44
2022/12/14 06:49:22;;;;;;;10.32;5.53;;;-0.50;99.90;;;;;;5051089;28;20178;-43
2022/12/14 06:51:47;;;;;;;11.48;5.70;;;-0.60;99.90;;;;;;5053128;28;20171;-43
2022/12/14 06:54:14;;;;;;;14.20;5.55;;;-0.50;99.90;;;;;;5055244;28;20634;-43
2022/12/14 06:56:41;;;;;;;14.13;5.47;;;-0.50;99.90;;;;;;5054940;28;20249;-43
2022/12/14 06:59:07;;;;;;;15.73;5.15;;;;;;;;;;5054971;28;20214;-43
2022/12/14 07:01:34;;;;;;;8.82;5.25;;;-0.50;99.90;;;;;;5054254;28;20246;-43
2022/12/14 07:04:00;;;;;;;11.38;4.57;;;-0.50;99.90;;;;;;5054755;28;20170;-46
2022/12/14 07:06:30;;;;;;;8.40;4.55;;;-0.50;99.90;;;;;;5054791;28;20737;-49
2022/12/14 07:08:57;;;;;;;8.93;5.28;;;-0.50;99.90;;;;;;5055343;28;20540;-46
2022/12/14 07:11:24;;;;;;;14.13;4.57;;;-0.50;99.90;;;;;;5055109;28;20181;-49
2022/12/14 07:13:49;;;;;;;16.40;5.57;;;-0.50;99.90;;;;;;5054647;28;20254;-51
2022/12/14 07:16:21;;;;;;;10.00;5.15;;;-0.50;99.90;;;;;;5054584;28;20254;-46
2022/12/14 07:18:48;;;;;;;11.35;5.18;;;-0.50;99.90;;;;;;5054632;28;20174;-43
2022/12/14 07:21:15;;;;;;;11.13;4.95;;;-0.50;99.90;;;;;;5054571;28;20174;-43
2022/12/14 07:23:43;;;;;;;11.98;5.20;;;-0.50;99.90;;;;;;5054553;28;20627;-43
2022/12/14 07:26:12;;;;;;;9.50;4.50;;;-0.50;99.90;;;;;;5054407;28;20177;-43
2022/12/14 07:28:39;;;;;;;10.40;4.78;;;-0.50;99.90;;;;;;5054676;28;20202;-43
2022/12/14 07:31:09;;;;;;;18.88;7.45;;;-0.60;99.90;;;;;;5054711;28;20649;-43
2022/12/14 07:33:34;;;;;;;11.20;6.05;;;-0.60;99.90;;;;;;5054351;28;20653;-43
2022/12/14 07:36:12;;;;;;;9.50;5.65;;;-0.60;99.90;;;;;;5054235;28;20167;-43
2022/12/14 07:38:38;;;;;;;9.38;4.85;;;-0.70;99.90;;;;;;5054519;28;20178;-43
2022/12/14 07:41:13;;;;;;;10.48;5.18;;;-0.70;99.90;;;;;;5054242;28;20212;-43
2022/12/14 07:43:39;;;;;;;15.65;5.78;;;-0.70;99.90;;;;;;5054369;28;20524;-44
2022/12/14 07:46:09;;;;;;;15.50;5.82;;;-0.60;99.90;;;;;;5053861;28;20194;-43
2022/12/14 07:48:36;;;;;;;10.00;5.13;;;-0.60;99.90;;;;;;5053994;28;20673;-43
2022/12/14 07:51:07;;;;;;;9.93;5.82;;;-0.60;99.90;;;;;;5053978;28;20161;-43
2022/12/14 07:53:33;;;;;;;11.00;5.25;;;-0.50;99.90;;;;;;5054041;28;20182;-43
2022/12/14 07:56:01;;;;;;;9.38;5.35;;;-0.60;99.90;;;;;;5053888;28;20171;-43
2022/12/14 07:58:26;;;;;;;9.02;4.93;;;-0.50;99.90;;;;;;5053774;28;20178;-43
2022/12/14 08:00:52;;;;;;;12.88;5.68;;;-0.50;99.90;;;;;;5053686;28;20214;-42
2022/12/14 08:03:17;;;;;;;18.02;5.80;;;-0.50;99.90;;;;;;5052963;28;20174;-43
2022/12/14 08:05:43;;;;;;;11.90;5.85;;;-0.40;99.90;;;;;;5053557;28;20190;-43
2022/12/14 08:08:08;;;;;;;7.75;5.18;;;-0.40;99.90;;;;;;5053623;28;20210;-43
2022/12/14 08:10:34;;;;;;;15.98;6.00;;;-0.30;99.90;;;;;;5053525;28;20166;-43
2022/12/14 08:12:59;;;;;;;10.57;5.65;;;-0.20;99.90;;;;;;5053151;28;20178;-44
2022/12/14 08:15:25;;;;;;;23.10;6.53;;;-0.20;99.90;;;;;;5052997;28;20174;-43
2022/12/14 08:17:51;;;;;;;28.08;7.68;;;-0.20;99.90;;;;;;5053765;28;20174;-42
2022/12/14 08:20:16;;;;;;;14.48;7.05;;;-0.20;99.90;;;;;;5053466;28;20175;-42
2022/12/14 08:22:42;;;;;;;14.77;8.55;;;-0.20;99.90;;;;;;5053420;28;20171;-42
2022/12/14 08:25:08;;;;;;;13.40;6.72;;;-0.10;99.90;;;;;;5053641;28;20648;-43
2022/12/14 08:27:33;;;;;;;10.43;5.72;;;-0.20;99.90;;;;;;5053309;28;20682;-43
2022/12/14 08:29:59;;;;;;;16.80;7.13;;;-0.10;99.90;;;;;;5053253;28;20169;-43
2022/12/14 08:32:24;;;;;;;10.68;6.00;;;-0.20;99.90;;;;;;5053507;28;20246;-43
2022/12/14 08:34:50;;;;;;;14.50;6.35;;;-0.20;99.90;;;;;;5053397;28;20194;-43
2022/12/14 08:37:15;;;;;;;34.45;13.95;;;-0.10;99.90;;;;;;5053019;28;20174;-43
2022/12/14 08:39:41;;;;;;;21.90;9.70;;;-0.10;99.90;;;;;;5053028;28;20170;-43
2022/12/14 08:42:06;;;;;;;10.30;6.80;;;-0.10;99.90;;;;;;5053119;28;20757;-44
2022/12/14 08:44:32;;;;;;;9.73;5.40;;;-0.10;99.90;;;;;;5053045;28;20164;-43
2022/12/14 08:46:59;;;;;;;10.70;5.88;;;0.00;99.90;;;;;;5053119;28;20214;-43
2022/12/14 08:49:24;;;;;;;12.60;6.15;;;0.00;99.90;;;;;;5053352;28;20180;-43
2022/12/14 08:51:50;;;;;;;22.92;6.53;;;0.00;99.90;;;;;;5053267;28;20242;-44
2022/12/14 08:54:17;;;;;;;13.52;6.88;;;0.00;99.90;;;;;;5052594;28;20594;-43
2022/12/14 08:56:43;;;;;;;18.48;7.47;;;0.00;99.90;;;;;;5052866;28;20202;-43
2022/12/14 08:59:08;;;;;;;11.32;6.40;;;0.00;99.90;;;;;;5052984;28;20193;-43
2022/12/14 09:01:34;;;;;;;18.10;6.68;;;0.00;99.90;;;;;;5052343;28;20214;-43
2022/12/14 09:04:05;;;;;;;27.48;7.15;;;0.10;99.90;;;;;;5052094;28;20173;-43
2022/12/14 09:06:33;;;;;;;13.55;6.88;;;0.10;99.90;;;;;;5052300;28;20661;-44
2022/12/14 09:09:00;;;;;;;13.38;7.45;;;0.20;99.90;;;;;;5052479;28;20281;-43
2022/12/14 09:11:26;;;;;;;20.52;8.70;;;0.30;99.90;;;;;;5052612;28;20225;-43
2022/12/14 09:13:55;;;;;;;13.40;6.95;;;0.30;99.90;;;;;;5051969;28;20254;-43
2022/12/14 09:16:22;;;;;;;16.13;6.38;;;0.30;99.90;;;;;;5051463;28;20167;-43
2022/12/14 09:18:49;;;;;;;17.05;6.80;;;0.30;99.90;;;;;;5052254;28;20174;-44
2022/12/14 09:21:15;;;;;;;14.02;7.00;;;0.40;99.90;;;;;;5052513;28;20175;-43
2022/12/14 09:23:41;;;;;;;22.77;7.75;;;0.40;99.90;;;;;;5052435;28;20174;-43
2022/12/14 09:26:19;;;;;;;14.50;7.57;;;0.40;99.90;;;;;;5051816;28;20570;-44
2022/12/14 09:28:47;;;;;;;12.85;6.13;;;0.40;99.90;;;;;;5052408;28;20186;-43
2022/12/14 09:31:14;;;;;;;10.15;5.70;;;0.40;99.90;;;;;;5051920;28;20211;-43
2022/12/14 09:33:40;;;;;;;10.15;5.63;;;0.40;99.90;;;;;;5052162;28;20166;-43
2022/12/14 09:36:11;;;;;;;13.13;6.32;;;0.40;99.90;;;;;;5052071;28;20301;-43
2022/12/14 09:38:38;;;;;;;10.23;6.20;;;0.50;99.90;;;;;;5052026;28;20159;-43
2022/12/14 09:41:06;;;;;;;12.23;6.38;;;0.50;99.90;;;;;;5051875;28;20186;-43
2022/12/14 09:43:37;;;;;;;11.88;6.85;;;0.50;99.90;;;;;;5051885;28;20166;-43
2022/12/14 09:46:32;;;;;;;8.75;5.50;;;0.50;99.90;;;;;;5051880;28;20177;-43
2022/12/14 09:49:00;;;;;;;11.98;5.60;;;0.50;99.90;;;;;;5051718;28;20189;-42
2022/12/14 09:51:33;;;;;;;9.13;5.70;;;0.50;99.90;;;;;;5051817;28;20174;-43
2022/12/14 09:54:06;;;;;;;9.52;6.15;;;0.50;99.90;;;;;;5051850;28;20593;-43
2022/12/14 09:56:32;;;;;;;12.75;6.47;;;0.40;99.90;;;;;;5051772;28;20163;-43
2022/12/14 09:59:00;;;;;;;12.70;5.70;;;0.40;99.90;;;;;;5051864;28;20174;-43
2022/12/14 10:01:49;;;;;;;10.40;5.90;;;0.50;99.90;;;;;;5051745;28;20244;-43
2022/12/14 10:04:38;;;;;;;11.35;6.38;;;0.40;99.90;;;;;;5051927;28;20189;-44
2022/12/14 10:07:27;;;;;;;23.83;7.18;;;0.50;99.90;;;;;;5051388;28;20198;-43
2022/12/14 10:10:19;;;;;;;12.55;6.75;;;0.60;99.90;;;;;;5052209;28;20189;-43
2022/12/14 10:12:52;;;;;;;10.82;5.43;;;0.60;99.90;;;;;;5043273;28;20233;-43
2022/12/14 10:15:31;;;;;;;17.17;5.82;;;0.50;99.90;;;;;;5051583;28;20167;-45
2022/12/14 10:18:00;;;;;;;10.88;5.97;;;0.50;99.90;;;;;;5051497;28;20208;-43
2022/12/14 10:20:49;;;;;;;11.50;6.25;;;0.50;99.90;;;;;;5051544;28;20265;-43
2022/12/14 10:23:19;;;;;;;9.55;5.85;;;0.50;99.90;;;;;;5051478;28;20267;-43
2022/12/14 10:25:49;;;;;;;9.10;6.05;;;0.50;99.90;;;;;;5053600;28;20273;-43
2022/12/14 10:28:23;;;;;;;15.82;6.82;;;0.50;99.90;;;;;;5055755;28;20283;-43
2022/12/14 10:30:51;;;;;;;12.23;6.85;;;0.60;99.90;;;;;;5055837;28;20167;-43
2022/12/14 10:33:28;;;;;;;14.68;7.20;;;0.70;99.90;;;;;;5055503;28;20216;-43
2022/12/14 10:36:03;;;;;;;8.63;5.72;;;0.80;99.90;;;;;;5055404;28;20172;-43
2022/12/14 10:38:43;;;;;;;12.68;6.15;;;0.80;99.90;;;;;;5055461;28;20178;-44
2022/12/14 10:41:26;;;;;;;10.15;6.40;;;0.70;99.90;;;;;;5055333;28;20173;-44
2022/12/14 10:44:15;;;;;;;12.00;6.40;;;0.80;99.90;;;;;;5055735;28;20163;-46
2022/12/14 10:47:09;;;;;;;30.73;8.15;;;0.70;99.90;;;;;;5053894;28;20642;-43
2022/12/14 10:49:59;;;;;;;13.05;6.63;;;0.70;99.90;;;;;;5055219;28;20167;-45
2022/12/14 10:52:30;;;;;;;11.40;6.47;;;0.80;99.90;;;;;;5055391;28;20225;-43
2022/12/14 10:54:59;;;;;;;21.33;8.20;;;0.90;99.90;;;;;;5055166;28;20167;-43
2022/12/14 10:57:26;;;;;;;11.75;6.07;;;0.90;99.90;;;;;;5055027;28;20167;-43
2022/12/14 10:59:53;;;;;;;12.48;6.22;;;0.90;99.90;;;;;;5055611;28;20193;-43
2022/12/14 11:02:22;;;;;;;12.27;7.25;;;0.90;99.90;;;;;;5055162;28;20701;-43
2022/12/14 11:04:51;;;;;;;14.45;6.47;;;1.00;99.90;;;;;;5054978;28;20206;-44
2022/12/14 11:07:19;;;;;;;10.88;6.38;;;1.00;99.90;;;;;;5055062;28;20240;-44
2022/12/14 11:09:45;;;;;;;21.33;7.45;;;1.00;99.90;;;;;;5055102;28;20167;-44
2022/12/14 11:12:26;;;;;;;44.15;16.55;;;1.10;99.90;;;;;;5054717;28;20242;-43
2022/12/14 11:15:04;;;;;;;12.23;7.68;;;1.10;99.90;;;;;;5055325;28;20162;-43
2022/12/14 11:17:43;;;;;;;11.75;7.07;;;1.20;99.90;;;;;;5053433;28;20173;-43
2022/12/14 11:20:22;;;;;;;11.05;7.00;;;1.20;99.90;;;;;;5054288;28;20709;-46
2022/12/14 11:22:54;;;;;;;11.43;6.18;;;1.20;99.90;;;;;;5054581;28;20553;-44
2022/12/14 11:25:33;;;;;;;13.00;7.55;;;1.20;99.90;;;;;;5054328;28;20197;-43
2022/12/14 11:28:04;;;;;;;81.95;32.00;;;1.20;99.90;;;;;;5052590;28;20208;-43
2022/12/14 11:30:29;;;;;;;97.53;45.22;;;1.30;99.90;;;;;;5054246;28;20262;-44
2022/12/14 11:32:55;;;;;;;323.83;147.88;;;1.30;99.90;;;;;;5053195;28;20194;-50
2022/12/14 11:35:21;;;;;;;14.95;8.65;;;1.40;99.90;;;;;;5054333;28;20282;-51
2022/12/14 11:37:49;;;;;;;16.05;8.82;;;1.30;99.90;;;;;;5052903;28;20594;-52
2022/12/14 11:40:19;;;;;;;25.77;13.70;;;1.30;99.90;;;;;;5053761;28;20182;-50
2022/12/14 11:43:00;;;;;;;26.33;14.07;;;1.30;99.90;;;;;;5054109;28;20169;-43
2022/12/14 11:45:27;;;;;;;20.02;11.15;;;1.30;99.90;;;;;;5053045;28;20171;-43
2022/12/14 11:48:24;;;;;;;36.83;21.55;;;1.40;99.90;;;;;;5054527;28;20203;-42
2022/12/14 11:50:53;;;;;;;26.55;8.98;;;1.40;99.90;;;;;;5049844;28;20658;-42
2022/12/14 11:53:21;;;;;;;19.58;11.07;;;1.30;99.90;;;;;;5053573;28;20261;-42
2022/12/14 11:55:57;;;;;;;19.83;9.95;;;1.30;99.90;;;;;;5053474;28;20167;-43
2022/12/14 11:58:27;;;;;;;14.35;8.38;;;1.40;99.90;;;;;;5054157;28;20154;-42
2022/12/14 12:01:00;;;;;;;13.68;7.80;;;1.40;99.90;;;;;;5054117;28;20278;-42
2022/12/14 12:03:36;;;;;;;17.23;8.52;;;1.30;99.90;;;;;;5053672;28;20630;-42
2022/12/14 12:06:08;;;;;;;29.15;16.77;;;1.20;99.90;;;;;;5053773;28;20170;-42
2022/12/14 12:08:38;;;;;;;32.35;20.80;;;1.30;99.90;;;;;;5053687;28;20209;-42
2022/12/14 12:11:15;;;;;;;26.15;16.45;;;1.20;99.90;;;;;;5053621;28;20193;-42
2022/12/14 12:13:44;;;;;;;15.02;8.77;;;1.20;99.90;;;;;;5053367;28;20321;-44
2022/12/14 12:16:10;;;;;;;16.02;9.07;;;1.10;99.90;;;;;;5053585;28;20178;-42
2022/12/14 12:18:47;;;;;;;23.10;12.80;;;1.20;99.90;;;;;;5053521;28;20177;-43
2022/12/14 12:21:29;;;;;;;23.63;13.32;;;1.20;99.90;;;;;;5052858;28;20181;-43
2022/12/14 12:24:19;;;;;;;18.75;9.18;;;1.30;99.90;;;;;;5053163;28;20167;-42
2022/12/14 12:26:50;;;;;;;24.23;12.73;;;1.20;99.90;;;;;;5052605;28;20226;-42
2022/12/14 12:29:43;;;;;;;29.45;15.20;;;1.30;99.90;;;;;;5052130;28;20181;-42
2022/12/14 12:32:36;;;;;;;32.75;19.05;;;1.20;99.90;;;;;;5053567;28;20171;-43
2022/12/14 12:35:19;;;;;;;108.45;42.28;;;1.20;99.90;;;;;;5053216;28;20634;-42
2022/12/14 12:38:11;;;;;;;33.28;12.05;;;1.20;99.90;;;;;;5052854;28;20224;-43
2022/12/14 12:40:50;;;;;;;33.35;16.10;;;1.30;99.90;;;;;;5052758;28;20250;-42
2022/12/14 12:43:26;;;;;;;50.35;23.63;;;1.40;99.90;;;;;;5052806;28;20174;-42
2022/12/14 12:46:12;;;;;;;24.42;12.15;;;1.50;99.90;;;;;;5052985;28;20167;-41
2022/12/14 12:48:44;;;;;;;16.52;8.82;;;1.60;99.90;;;;;;5052696;28;20214;-41
2022/12/14 12:51:14;;;;;;;14.98;8.65;;;1.60;99.90;;;;;;5052654;28;20171;-42
2022/12/14 12:53:46;;;;;;;13.57;8.00;;;1.50;99.90;;;;;;5052280;28;20159;-43
2022/12/14 12:56:18;;;;;;;15.00;7.93;;;1.60;99.90;;;;;;5052688;28;20173;-42
2022/12/14 12:58:47;;;;;;;14.95;7.18;;;1.60;99.90;;;;;;5052412;28;20208;-42
2022/12/14 13:01:34;;;;;;;14.43;8.00;;;1.60;99.90;;;;;;5052134;28;20249;-43
2022/12/14 13:04:09;;;;;;;20.75;8.55;;;1.50;99.90;;;;;;5052474;28;20197;-42
2022/12/14 13:06:51;;;;;;;13.82;7.68;;;1.50;99.90;;;;;;5051003;28;20285;-42
2022/12/14 13:09:40;;;;;;;12.75;8.75;;;1.50;99.90;;;;;;5052559;28;20177;-43
2022/12/14 13:12:22;;;;;;;17.63;9.73;;;1.50;99.90;;;;;;5052156;28;20185;-43
2022/12/14 13:14:50;;;;;;;15.18;8.15;;;1.60;99.90;;;;;;5052493;28;20169;-45
2022/12/14 13:17:33;;;;;;;13.90;8.30;;;1.70;99.90;;;;;;5052376;28;20166;-43
2022/12/14 13:20:02;;;;;;;13.70;8.63;;;1.60;99.90;;;;;;5052621;28;20189;-44
2022/12/14 13:22:30;;;;;;;17.08;8.13;;;1.70;99.90;;;;;;5049757;28;20578;-42
2022/12/14 13:25:01;;;;;;;20.10;7.10;;;1.60;99.90;;;;;;5052054;28;20166;-45